Weather at Adelaide International Airport

Public forecast

Using degrees Celsius for public forecast. Weather courtesy of forecast.io.

Current aviation weather report (METAR) for Adelaide International Airport

Report is more than 6 hours old.

2022/11/14 15:30 (retrieved 2 years ago)

YPAD 141530Z 17010KT 9999 FEW022 SCT067 12/07 Q1016

Aviation forecast (TAF) for Adelaide International Airport

Forecast is more than 12 hours old.

2023/02/22 18:10 Ammendment (retrieved 1 year ago)

TAF AMD YPAD 221709Z 2218/2400 04012KT CAVOK FM230200 26012KT CAVOK FM230800 06012KT CAVOK FM231200 05017G27KT CAVOK FM232300 01015G25KT CAVOK